CAMK1: Grouse Creek nr Cameron KS

Data processed at Thu May 23 2019 23:50


All information presented herein is the property of the government of the United States of America and may be revised or deleted at any time without prior notice.
Dissemination of this information without the expressed written consent of the Public Affairs Office, Tulsa District U.S. Army Corps of Engineers is strictly prohibited.
These data are gathered electronically and, as presented, have not undergone any form of quality control. These data are not guaranteed to be valid or correct.
Go to home page.
Go to station list.
Go to home page.

Upstream stations:

Downstream station:
Previous Day
Next Day
Current Day
    
SHEF ID:       CAMK1     Grouse Creek nr Cameron KS
STATION TYPE:  

               PRECIP     STAGE  RIV-FLOW   VOLTAGE  BAT-LOAD
                   in        ft       cfs      volt      volt
              Ccp-Rev   Ccp-Rev   Ccp-Rev   Ccp-Rev   Ccp-Rev
(US/Central)
05/23 00:00      0.00     16.68      2120     12.65     12.57
05/23 01:00      0.00     16.69      2125     12.65     12.57
05/23 02:00      0.00     16.62      2091     12.65     12.49
05/23 03:00      0.00     16.57      2067     12.65     12.49
05/23 04:00      0.00     16.55      2058     12.57     12.49
05/23 05:00      0.01     16.52      2043     12.57     12.41
05/23 06:00      0.00     16.50      2034     12.57     12.41
05/23 07:00      0.00     16.44      2006     12.57     12.41
05/23 08:00      0.00     16.37      1973     12.65     12.49
05/23 09:00      0.00     16.31      1945     12.97     12.65
05/23 10:00      0.00     16.24      1914     13.29     12.97
05/23 11:00      0.00     16.21      1900     13.68     13.29
05/23 12:00      0.00     16.16      1878     13.84     13.37
05/23 13:00      0.00     16.13      1864     13.44     13.37
05/23 14:00      0.00     16.07      1838     13.68     14.00
05/23 15:00      0.00     16.00      1807     13.60     13.21
05/23 16:00      0.00     15.99      1803     14.00     13.60
05/23 17:00      0.00     15.99      1803     13.37     13.05
05/23 18:00      0.00     15.93      1777     14.16     13.05
05/23 19:00      0.00     15.87      1752     14.16     13.05
05/23 20:00      0.00     15.82      1731     13.05     13.05
05/23 21:00      0.00     15.83      1735     12.81     12.73
05/23 22:00      0.00     15.79      1718     12.73     12.65
05/23 23:00      0.00     15.73      1693     12.73     12.57